createdAt,value
2018-07-10T00:03:25.185Z,21.10
2018-07-10T00:05:58.927Z,21.10
2018-07-10T00:08:32.612Z,21.00
2018-07-10T00:11:06.233Z,21.00
2018-07-10T00:13:40.045Z,21.00
2018-07-10T00:16:14.662Z,21.00
2018-07-10T00:18:48.474Z,20.90
2018-07-10T00:21:22.142Z,20.90
2018-07-10T00:23:55.971Z,21.00
2018-07-10T00:26:29.711Z,21.00
2018-07-10T00:29:04.271Z,21.00
2018-07-10T00:31:38.747Z,20.90
2018-07-10T00:34:12.504Z,20.90
2018-07-10T00:36:46.233Z,21.00
2018-07-10T00:39:19.896Z,21.00
2018-07-10T00:41:53.588Z,21.00
2018-07-10T00:44:27.444Z,21.00
2018-07-10T00:47:01.995Z,21.00
2018-07-10T00:49:35.619Z,21.00
2018-07-10T00:52:10.218Z,21.00
2018-07-10T00:54:43.880Z,21.00
2018-07-10T00:57:18.600Z,20.90
2018-07-10T00:59:53.080Z,20.90
2018-07-10T01:02:26.992Z,20.90
2018-07-10T01:05:00.831Z,20.90
2018-07-10T01:07:35.219Z,20.90
2018-07-10T01:10:08.943Z,20.90
2018-07-10T01:12:42.712Z,20.80
2018-07-10T01:15:16.553Z,20.80
2018-07-10T01:17:50.324Z,20.80
2018-07-10T01:20:24.228Z,20.90
2018-07-10T01:22:58.659Z,20.80
2018-07-10T01:25:33.111Z,20.80
2018-07-10T01:28:06.926Z,20.80
2018-07-10T01:30:40.650Z,20.80
2018-07-10T01:33:14.528Z,20.80
2018-07-10T01:35:48.288Z,20.80
2018-07-10T01:38:22.017Z,20.70
2018-07-10T01:40:55.882Z,20.70
2018-07-10T01:43:29.727Z,20.70
2018-07-10T01:46:03.514Z,20.70
2018-07-10T01:48:37.224Z,20.60
2018-07-10T01:51:11.064Z,20.60
2018-07-10T01:53:44.759Z,20.50
2018-07-10T01:56:19.299Z,20.40
2018-07-10T01:58:53.084Z,20.40
2018-07-10T02:01:27.733Z,20.40
2018-07-10T02:04:01.555Z,20.30
2018-07-10T02:06:36.185Z,20.30
2018-07-10T02:09:09.985Z,20.30
2018-07-10T02:11:44.616Z,20.20
2018-07-10T02:14:19.911Z,20.20
2018-07-10T02:16:53.672Z,20.20
2018-07-10T02:19:28.227Z,20.20
2018-07-10T02:22:01.869Z,20.20
2018-07-10T02:24:36.360Z,20.10
2018-07-10T02:27:10.223Z,20.10
2018-07-10T02:29:44.793Z,20.00
2018-07-10T02:32:19.260Z,20.00
2018-07-10T02:34:53.060Z,20.00
2018-07-10T02:37:27.569Z,19.80
2018-07-10T02:40:01.402Z,19.80
2018-07-10T02:42:36.002Z,19.80
2018-07-10T02:45:10.628Z,19.70
2018-07-10T02:47:44.404Z,19.70
2018-07-10T02:50:18.116Z,19.80
2018-07-10T02:52:51.951Z,19.80
2018-07-10T02:55:25.776Z,19.80
2018-07-10T02:58:01.070Z,19.80
2018-07-10T03:00:34.820Z,19.80
2018-07-10T03:03:08.618Z,19.80
2018-07-10T03:05:43.235Z,19.80
2018-07-10T03:08:17.012Z,19.80
2018-07-10T03:10:50.904Z,19.90
2018-07-10T03:13:24.768Z,19.90
2018-07-10T03:15:58.464Z,20.00
2018-07-10T03:18:32.276Z,20.00
2018-07-10T03:21:05.956Z,20.00
2018-07-10T03:23:39.870Z,20.00
2018-07-10T03:26:13.608Z,19.90
2018-07-10T03:28:47.420Z,20.00
2018-07-10T03:31:21.085Z,19.90
2018-07-10T03:33:55.707Z,19.90
2018-07-10T03:36:29.427Z,19.90
2018-07-10T03:39:04.047Z,19.90
2018-07-10T03:41:37.788Z,19.90
2018-07-10T03:44:11.544Z,19.90
2018-07-10T03:46:45.396Z,20.00
2018-07-10T03:49:19.947Z,20.00
2018-07-10T03:51:53.668Z,20.00
2018-07-10T03:54:27.365Z,19.90
2018-07-10T03:57:01.195Z,19.90
2018-07-10T03:59:35.020Z,19.90
2018-07-10T04:02:09.593Z,19.90
2018-07-10T04:04:43.441Z,19.90
2018-07-10T04:07:17.112Z,19.90
2018-07-10T04:09:51.007Z,19.90
2018-07-10T04:12:24.710Z,19.90
2018-07-10T04:14:58.308Z,19.90
2018-07-10T04:17:32.928Z,19.90
2018-07-10T04:20:06.564Z,19.90
2018-07-10T04:22:40.986Z,20.00
2018-07-10T04:25:15.614Z,20.00
2018-07-10T04:27:49.416Z,20.00
2018-07-10T04:30:23.252Z,20.00
2018-07-10T04:32:57.765Z,20.00
2018-07-10T04:35:31.841Z,20.00
2018-07-10T04:38:06.498Z,20.20
2018-07-10T04:40:41.037Z,20.30
2018-07-10T04:43:14.795Z,20.20
2018-07-10T04:45:49.236Z,20.20
2018-07-10T04:48:23.838Z,20.20
2018-07-10T04:50:58.436Z,20.20
2018-07-10T04:53:32.209Z,20.20
2018-07-10T04:56:06.929Z,20.50
2018-07-10T04:58:41.519Z,20.60
2018-07-10T05:01:15.506Z,20.60
2018-07-10T05:03:49.288Z,20.70
2018-07-10T05:06:23.073Z,20.80
2018-07-10T05:08:56.886Z,20.80
2018-07-10T05:11:31.502Z,20.70
2018-07-10T05:14:05.575Z,20.70
2018-07-10T05:16:40.159Z,20.80
2018-07-10T05:19:14.040Z,20.80
2018-07-10T05:21:47.798Z,20.90
2018-07-10T05:24:22.365Z,21.00
2018-07-10T05:26:56.216Z,21.00
2018-07-10T05:29:30.588Z,21.00
2018-07-10T05:32:05.228Z,21.10
2018-07-10T05:34:39.065Z,21.10
2018-07-10T05:37:13.633Z,21.30
2018-07-10T05:39:47.868Z,21.20
2018-07-10T05:42:21.596Z,21.10
2018-07-10T05:44:55.433Z,21.00
2018-07-10T05:47:29.256Z,21.00
2018-07-10T05:50:03.126Z,20.90
2018-07-10T05:52:37.056Z,20.70
2018-07-10T05:55:10.718Z,20.60
2018-07-10T05:57:45.436Z,20.50
2018-07-10T06:00:19.316Z,20.50
2018-07-10T06:02:53.061Z,20.50
2018-07-10T06:05:26.666Z,20.50
2018-07-10T06:08:01.334Z,20.50
2018-07-10T06:10:35.980Z,20.50
2018-07-10T06:13:09.761Z,20.50
2018-07-10T06:15:43.419Z,20.60
2018-07-10T06:18:17.101Z,20.60
2018-07-10T06:20:50.788Z,20.50
2018-07-10T06:23:24.625Z,20.40
2018-07-10T06:25:58.352Z,20.50
2018-07-10T06:28:32.097Z,20.60
2018-07-10T06:31:06.671Z,20.80
2018-07-10T06:33:40.512Z,20.80
2018-07-10T06:36:14.357Z,20.80
2018-07-10T06:38:48.153Z,20.80
2018-07-10T06:41:22.606Z,20.70
2018-07-10T06:43:57.136Z,20.60
2018-07-10T06:46:30.941Z,20.60
2018-07-10T06:49:05.415Z,20.60
2018-07-10T06:51:40.026Z,20.60
2018-07-10T06:54:13.994Z,20.60
2018-07-10T06:56:48.032Z,20.60
2018-07-10T06:59:21.835Z,20.70
2018-07-10T07:01:56.440Z,20.50
2018-07-10T07:04:30.305Z,20.50
2018-07-10T07:07:04.837Z,20.30
2018-07-10T07:09:38.770Z,20.30
2018-07-10T07:12:12.596Z,20.30
2018-07-10T07:14:46.464Z,20.20
2018-07-10T07:17:20.061Z,20.20
2018-07-10T07:19:53.933Z,20.20
2018-07-10T07:22:27.547Z,20.20
2018-07-10T07:25:02.111Z,20.20
2018-07-10T07:27:35.941Z,20.10
2018-07-10T07:30:10.475Z,20.20
2018-07-10T07:32:44.251Z,20.20
2018-07-10T07:35:17.900Z,20.20
2018-07-10T07:37:52.352Z,20.00
2018-07-10T07:40:26.161Z,20.00
2018-07-10T07:42:59.868Z,19.90
2018-07-10T07:45:34.438Z,20.00
2018-07-10T07:48:08.863Z,20.00
2018-07-10T07:50:42.762Z,20.10
2018-07-10T07:53:16.667Z,20.10
2018-07-10T07:55:50.343Z,20.20
2018-07-10T07:58:25.008Z,20.40
2018-07-10T08:00:58.873Z,20.40
2018-07-10T08:03:33.281Z,20.20
2018-07-10T08:06:07.182Z,20.20
2018-07-10T08:08:40.875Z,20.10
2018-07-10T08:11:14.716Z,20.30
2018-07-10T08:13:49.360Z,20.70
2018-07-10T08:16:23.983Z,20.60
2018-07-10T08:18:57.848Z,20.60
2018-07-10T08:21:31.762Z,20.70
2018-07-10T08:24:05.372Z,20.80
2018-07-10T08:26:40.028Z,20.70
2018-07-10T08:29:13.850Z,20.70
2018-07-10T08:31:48.630Z,20.80
2018-07-10T08:34:22.657Z,20.80
2018-07-10T08:36:57.711Z,21.00
2018-07-10T08:39:32.228Z,21.00
2018-07-10T08:42:06.024Z,21.00
2018-07-10T08:44:39.789Z,21.20
2018-07-10T08:47:14.339Z,21.70
2018-07-10T08:49:48.121Z,21.70
2018-07-10T08:52:22.685Z,22.20
2018-07-10T08:54:56.479Z,22.20
2018-07-10T08:57:30.307Z,22.50
2018-07-10T09:00:04.138Z,22.40
2018-07-10T09:02:38.813Z,22.80
2018-07-10T09:05:12.542Z,22.80
2018-07-10T09:07:46.356Z,23.10
2018-07-10T09:10:20.220Z,22.80
2018-07-10T09:12:53.968Z,22.50
2018-07-10T09:15:27.770Z,22.10
2018-07-10T09:18:01.571Z,22.50
2018-07-10T09:20:35.278Z,23.50
2018-07-10T09:23:09.078Z,24.70
2018-07-10T09:25:42.965Z,24.50
2018-07-10T09:28:17.634Z,23.70
2018-07-10T09:30:51.484Z,23.70
2018-07-10T09:33:25.402Z,23.30
2018-07-10T09:35:59.238Z,22.80
2018-07-10T09:38:33.050Z,22.30
2018-07-10T09:41:06.760Z,22.20
2018-07-10T09:43:40.408Z,21.60
2018-07-10T09:46:15.030Z,20.90
2018-07-10T09:48:49.564Z,20.70
2018-07-10T09:51:24.143Z,20.70
2018-07-10T09:53:58.836Z,20.60
2018-07-10T09:56:32.675Z,20.60
2018-07-10T09:59:07.495Z,20.70
2018-07-10T10:01:42.103Z,21.00
2018-07-10T10:04:16.774Z,21.10
2018-07-10T10:06:50.531Z,21.10
2018-07-10T10:09:25.185Z,21.20
2018-07-10T10:11:58.968Z,21.10
2018-07-10T10:14:32.688Z,21.20
2018-07-10T10:17:07.181Z,21.80
2018-07-10T10:19:40.989Z,21.80
2018-07-10T10:22:15.521Z,21.90
2018-07-10T10:24:49.342Z,21.90
2018-07-10T10:27:23.882Z,21.80
2018-07-10T10:29:58.460Z,21.80
2018-07-10T10:32:32.260Z,21.80
2018-07-10T10:35:06.101Z,21.80
2018-07-10T10:37:39.762Z,21.70
2018-07-10T10:40:14.421Z,21.30
2018-07-10T10:42:49.040Z,21.10
2018-07-10T10:45:23.485Z,21.70
2018-07-10T10:47:57.220Z,21.80
2018-07-10T10:50:30.956Z,22.60
2018-07-10T10:53:04.708Z,22.70
2018-07-10T10:55:39.228Z,22.00
2018-07-10T10:58:13.059Z,22.00
2018-07-10T11:00:47.953Z,21.40
2018-07-10T11:03:21.828Z,21.30
2018-07-10T11:05:55.590Z,20.90
2018-07-10T11:08:30.224Z,20.80
2018-07-10T11:11:04.220Z,20.80
2018-07-10T11:13:38.044Z,20.50
2018-07-10T11:16:11.711Z,20.50
2018-07-10T11:18:45.586Z,20.50
2018-07-10T11:21:20.204Z,19.90
2018-07-10T11:23:54.749Z,19.80
2018-07-10T11:26:28.600Z,19.80
2018-07-10T11:29:02.533Z,19.80
2018-07-10T11:31:37.119Z,19.30
2018-07-10T11:34:10.959Z,19.30
2018-07-10T11:36:45.542Z,19.70
2018-07-10T11:39:20.167Z,19.70
2018-07-10T11:41:53.871Z,19.60
2018-07-10T11:44:27.546Z,19.60
2018-07-10T11:47:01.969Z,19.40
2018-07-10T11:49:35.633Z,19.40
2018-07-10T11:52:09.487Z,19.50
2018-07-10T11:54:43.087Z,19.70
2018-07-10T11:57:16.838Z,20.00
2018-07-10T11:59:51.350Z,20.70
2018-07-10T12:02:25.200Z,20.70
2018-07-10T12:04:59.813Z,21.20
2018-07-10T12:07:34.139Z,21.20
2018-07-10T12:10:17.764Z,21.20
2018-07-10T12:12:51.552Z,21.40
2018-07-10T12:15:26.115Z,21.70
2018-07-10T12:18:00.055Z,21.60
2018-07-10T12:20:34.659Z,21.30
2018-07-10T12:23:09.295Z,21.20
2018-07-10T12:25:42.920Z,21.20
2018-07-10T12:28:16.828Z,21.40
2018-07-10T12:30:51.430Z,21.70
2018-07-10T12:33:25.216Z,21.60
2018-07-10T12:35:58.969Z,21.90
2018-07-10T12:38:33.583Z,22.20
2018-07-10T12:41:07.218Z,22.10
2018-07-10T12:43:41.097Z,22.30
2018-07-10T12:46:15.664Z,22.10
2018-07-10T12:48:50.444Z,22.20
2018-07-10T12:51:24.247Z,22.10
2018-07-10T12:53:58.030Z,22.20
2018-07-10T12:56:31.990Z,22.10
2018-07-10T12:59:05.927Z,21.80
2018-07-10T13:01:39.720Z,21.90
2018-07-10T13:04:14.279Z,21.80
2018-07-10T13:06:48.959Z,21.80
2018-07-10T13:09:23.404Z,22.00
2018-07-10T13:11:57.194Z,22.00
2018-07-10T13:14:31.729Z,21.90
2018-07-10T13:17:05.448Z,21.90
2018-07-10T13:19:39.276Z,22.10
2018-07-10T13:22:13.920Z,21.90
2018-07-10T13:24:47.704Z,21.90
2018-07-10T13:27:21.406Z,21.90
2018-07-10T13:29:55.171Z,21.80
2018-07-10T13:32:28.931Z,21.80
2018-07-10T13:35:03.442Z,21.70
2018-07-10T13:37:37.399Z,21.70
2018-07-10T13:40:11.107Z,22.20
2018-07-10T13:42:45.049Z,22.40
2018-07-10T13:45:18.816Z,22.60
2018-07-10T13:47:52.639Z,22.50
2018-07-10T13:50:26.606Z,22.60
2018-07-10T13:53:00.506Z,22.50
2018-07-10T13:55:34.296Z,22.60
2018-07-10T13:58:08.129Z,22.60
2018-07-10T14:00:41.944Z,22.80
2018-07-10T14:03:15.750Z,23.20
2018-07-10T14:05:49.654Z,23.20
2018-07-10T14:08:23.437Z,23.20
2018-07-10T14:10:59.361Z,23.30
2018-07-10T14:13:33.100Z,23.30
2018-07-10T14:16:07.871Z,23.20
2018-07-10T14:18:41.791Z,23.20
2018-07-10T14:21:15.461Z,23.20
2018-07-10T14:23:49.267Z,23.40
2018-07-10T14:26:23.856Z,23.10
2018-07-10T14:28:58.862Z,23.10
2018-07-10T14:31:32.441Z,23.20
2018-07-10T14:34:06.290Z,23.20
2018-07-10T14:36:41.632Z,22.90
2018-07-10T14:39:16.093Z,22.80
2018-07-10T14:41:49.891Z,22.80
2018-07-10T14:44:24.519Z,22.50
2018-07-10T14:46:58.266Z,22.40
2018-07-10T14:49:31.951Z,22.70
2018-07-10T14:52:05.802Z,22.90
2018-07-10T14:54:39.578Z,22.80
2018-07-10T14:57:13.404Z,22.90
2018-07-10T14:59:47.113Z,22.80
2018-07-10T15:02:21.540Z,22.80
2018-07-10T15:04:55.986Z,22.80
2018-07-10T15:07:30.593Z,22.50
2018-07-10T15:10:05.252Z,22.50
2018-07-10T15:12:39.018Z,22.50
2018-07-10T15:15:12.806Z,22.60
2018-07-10T15:20:37.016Z,22.70
2018-07-10T15:23:11.651Z,23.00
2018-07-10T15:25:46.205Z,23.00
2018-07-10T15:28:20.106Z,22.90
2018-07-10T15:30:54.705Z,22.80
2018-07-10T15:33:29.316Z,22.70
2018-07-10T15:36:03.125Z,22.70
2018-07-10T15:38:36.988Z,22.70
2018-07-10T15:41:12.364Z,22.70
2018-07-10T15:43:46.196Z,22.70
2018-07-10T15:46:20.934Z,22.60
2018-07-10T15:48:55.508Z,22.70
2018-07-10T15:51:30.784Z,22.70
2018-07-10T15:54:05.282Z,22.50
2018-07-10T15:56:38.936Z,22.50
2018-07-10T15:59:12.605Z,22.40
2018-07-10T16:01:46.469Z,22.20
2018-07-10T16:04:20.284Z,22.30
2018-07-10T16:06:54.141Z,22.50
2018-07-10T16:09:27.920Z,22.60
2018-07-10T16:12:01.731Z,22.60
2018-07-10T16:14:35.710Z,22.60
2018-07-10T16:17:09.559Z,22.40
2018-07-10T16:19:43.413Z,22.40
2018-07-10T16:22:18.431Z,22.50
2018-07-10T16:24:52.979Z,22.60
2018-07-10T16:27:26.692Z,22.60
2018-07-10T16:30:00.486Z,22.40
2018-07-10T16:32:34.234Z,22.30
2018-07-10T16:35:08.134Z,22.10
2018-07-10T16:37:41.945Z,22.20
2018-07-10T16:40:15.793Z,22.30
2018-07-10T16:42:50.368Z,22.30
2018-07-10T16:45:24.206Z,22.20
2018-07-10T16:47:57.953Z,22.30
2018-07-10T16:50:31.747Z,22.30
2018-07-10T16:53:05.450Z,22.30
2018-07-10T16:55:39.921Z,22.20
2018-07-10T16:58:13.825Z,22.20
2018-07-10T17:00:47.637Z,22.30
2018-07-10T17:03:21.413Z,22.30
2018-07-10T17:05:55.996Z,22.30
2018-07-10T17:08:29.788Z,22.30
2018-07-10T17:11:04.493Z,22.40
2018-07-10T17:13:38.234Z,22.40
2018-07-10T17:16:12.101Z,22.50
2018-07-10T17:18:46.632Z,22.30
2018-07-10T17:21:20.553Z,22.30
2018-07-10T17:23:55.166Z,22.40
2018-07-10T17:26:29.677Z,22.30
2018-07-10T17:29:04.183Z,22.30
2018-07-10T17:31:38.712Z,22.10
2018-07-10T17:34:13.272Z,22.10
2018-07-10T17:36:46.949Z,22.10
2018-07-10T17:39:21.645Z,21.90
2018-07-10T17:41:56.272Z,21.80
2018-07-10T17:44:30.864Z,21.80
2018-07-10T17:47:04.522Z,21.80
2018-07-10T17:49:38.203Z,21.80
2018-07-10T17:52:12.792Z,21.80
2018-07-10T17:54:46.717Z,21.80
2018-07-10T17:57:20.730Z,21.80
2018-07-10T17:59:55.354Z,21.70
2018-07-10T18:02:29.735Z,21.80
2018-07-10T18:05:03.483Z,21.80
2018-07-10T18:07:38.160Z,21.60
2018-07-10T18:10:11.848Z,21.60
2018-07-10T18:12:46.416Z,21.30
2018-07-10T18:15:20.276Z,21.30
2018-07-10T18:17:54.723Z,21.20
2018-07-10T18:20:28.451Z,21.20
2018-07-10T18:23:03.555Z,21.20
2018-07-10T18:25:37.215Z,21.10
2018-07-10T18:28:11.822Z,21.10
2018-07-10T18:30:45.666Z,21.10
2018-07-10T18:33:19.488Z,21.10
2018-07-10T18:35:53.817Z,20.90
2018-07-10T18:38:28.368Z,20.80
2018-07-10T18:41:02.188Z,20.80
2018-07-10T18:43:35.884Z,20.80
2018-07-10T18:46:10.378Z,20.60
2018-07-10T18:48:44.997Z,20.60
2018-07-10T18:51:18.767Z,20.60
2018-07-10T18:53:52.531Z,20.60
2018-07-10T18:56:26.304Z,20.60
2018-07-10T18:59:00.919Z,20.50
2018-07-10T19:01:35.381Z,20.40
2018-07-10T19:04:09.238Z,20.40
2018-07-10T19:06:43.708Z,20.40
2018-07-10T19:09:17.480Z,20.40
2018-07-10T19:11:52.149Z,20.30
2018-07-10T19:14:26.074Z,20.30
2018-07-10T19:16:59.916Z,20.30
2018-07-10T19:19:33.681Z,20.20
2018-07-10T19:22:07.425Z,20.10
2018-07-10T19:24:41.160Z,20.10
2018-07-10T19:27:15.613Z,19.90
2018-07-10T19:29:50.143Z,19.90
2018-07-10T19:32:23.713Z,19.90
2018-07-10T19:34:57.502Z,20.00
2018-07-10T19:37:31.418Z,19.90
2018-07-10T19:40:05.134Z,19.90
2018-07-10T19:42:38.940Z,19.90
2018-07-10T19:45:13.614Z,19.90
2018-07-10T19:47:47.473Z,19.90
2018-07-10T19:50:21.995Z,20.00
2018-07-10T19:52:56.631Z,19.90
2018-07-10T19:55:30.336Z,19.90
2018-07-10T19:58:04.973Z,19.90
2018-07-10T20:00:38.772Z,19.90
2018-07-10T20:03:12.583Z,19.90
2018-07-10T20:05:47.106Z,19.80
2018-07-10T20:08:20.898Z,19.80
2018-07-10T20:10:55.710Z,19.80
2018-07-10T20:13:29.316Z,19.70
2018-07-10T20:16:03.113Z,19.70
2018-07-10T20:18:36.727Z,19.70
2018-07-10T20:21:10.415Z,19.70
2018-07-10T20:23:44.984Z,19.50
2018-07-10T20:26:19.483Z,19.50
2018-07-10T20:28:53.344Z,19.50
2018-07-10T20:31:27.883Z,19.40
2018-07-10T20:34:01.556Z,19.40
2018-07-10T20:36:35.351Z,19.40
2018-07-10T20:39:09.284Z,19.40
2018-07-10T20:41:43.103Z,19.30
2018-07-10T20:44:16.805Z,19.30
2018-07-10T20:46:50.466Z,19.20
2018-07-10T20:49:25.037Z,19.00
2018-07-10T20:51:59.496Z,19.00
2018-07-10T20:54:34.920Z,18.90
2018-07-10T20:57:09.356Z,18.80
2018-07-10T20:59:43.113Z,18.80
2018-07-10T21:02:16.929Z,18.80
2018-07-10T21:04:50.619Z,18.80
2018-07-10T21:07:24.397Z,18.70
2018-07-10T21:09:58.128Z,18.70
2018-07-10T21:12:31.825Z,18.70
2018-07-10T21:15:05.595Z,18.60
2018-07-10T21:17:40.234Z,18.50
2018-07-10T21:20:14.678Z,18.50
2018-07-10T21:22:49.193Z,18.40
2018-07-10T21:25:23.009Z,18.40
2018-07-10T21:27:56.840Z,18.30
2018-07-10T21:30:30.548Z,18.20
2018-07-10T21:33:04.325Z,18.20
2018-07-10T21:35:38.080Z,18.10
2018-07-10T21:38:11.720Z,18.00
2018-07-10T21:40:45.476Z,18.00
2018-07-10T21:43:20.029Z,17.90
2018-07-10T21:45:53.856Z,17.90
2018-07-10T21:48:27.563Z,18.00
2018-07-10T21:51:01.260Z,18.00
2018-07-10T21:53:35.112Z,17.90
2018-07-10T21:56:08.950Z,17.90
2018-07-10T21:58:42.882Z,17.80
2018-07-10T22:01:50.081Z,17.70
2018-07-10T22:04:23.890Z,17.70
2018-07-10T22:06:57.594Z,17.60
2018-07-10T22:09:32.213Z,17.50
2018-07-10T22:12:06.040Z,17.50
2018-07-10T22:14:39.837Z,17.40
2018-07-10T22:17:14.408Z,17.30
2018-07-10T22:19:48.277Z,17.20
2018-07-10T22:22:22.091Z,17.20
2018-07-10T22:24:55.976Z,17.20
2018-07-10T22:27:29.871Z,17.20
2018-07-10T22:30:04.467Z,17.20
2018-07-10T22:32:38.288Z,17.10
2018-07-10T22:35:12.199Z,17.10
2018-07-10T22:37:45.872Z,17.10
2018-07-10T22:40:19.754Z,17.10
2018-07-10T22:42:53.510Z,17.00
2018-07-10T22:45:28.000Z,16.90
2018-07-10T22:48:02.584Z,16.90
2018-07-10T22:50:37.193Z,16.90
2018-07-10T22:53:11.016Z,16.90
2018-07-10T22:55:44.978Z,16.90
2018-07-10T22:58:18.683Z,16.90
2018-07-10T23:00:53.246Z,16.80
2018-07-10T23:03:26.842Z,16.70
2018-07-10T23:06:00.590Z,16.80
2018-07-10T23:08:34.296Z,16.70
2018-07-10T23:11:08.981Z,16.80
2018-07-10T23:13:42.742Z,16.80
2018-07-10T23:16:16.560Z,16.80
2018-07-10T23:18:50.371Z,16.80
2018-07-10T23:21:25.017Z,16.80
2018-07-10T23:23:58.705Z,16.70
2018-07-10T23:26:33.317Z,16.60
2018-07-10T23:29:07.021Z,16.60
2018-07-10T23:31:41.569Z,16.50
2018-07-10T23:34:15.371Z,16.50
2018-07-10T23:36:49.078Z,16.40
2018-07-10T23:39:22.835Z,16.40
2018-07-10T23:41:56.500Z,16.40
2018-07-10T23:44:31.052Z,16.30
2018-07-10T23:47:05.660Z,16.20
2018-07-10T23:49:39.474Z,16.20
2018-07-10T23:52:16.799Z,16.20
2018-07-10T23:54:50.469Z,16.20
2018-07-10T23:57:24.217Z,16.00
2018-07-10T23:59:57.852Z,16.00
